TOI - Troy Muni At N Kenneth Campbell Fld

Pirep is a free, collaborative database of all public and private airports located within the United States. All pilots are welcome to contribute, edit, and improve any airport they have local knowledge about, no registration required.
Are you familiar with this airport? Help out other pilots by adding your local knowledge.
Uploaded photos will be licensed under a CC BY-SA 4.0 license. Please only upload photos you have the rights to use.
Tags
Public
Undocu­mented
METAR / TAF
Edit Tags
Food
Camping
Lodging
Car Rental
Bicycles
Swimming
Golfing
Fishing
Hot Springs
Museum
Flying Clubs
Airpark
Upcoming Events
No upcoming events. Is anything happening here soon?
*
*
*

Where exactly on/near the airport is this event taking place?

Is there a webpage with more information for this event?

Who should be contacted for more information?

What is this event all about?

Repeat every
Description
Transient Parking
Fuel Location
Landing & Tie-down Fees
Crew Car Availability
Flying Clubs
WiFi Access
Airport Statistics
Location: Troy, AL
Elevation: 397ft
Sectional: New Orleans
Activation date: Dec 1944
Fuel: 100LL, A+ (prices)
Runway 07/25: 6,197ft
Runway 14/32: 5,024ft
Access: Open to the public
Current Weather — VFR
  • Weather data is strictly informational and not for flight planning purposes.
  • METAR
    2024-04-21 23:53:00 CDT
    Ceiling Wind Temperature Dewpoint Weather Visbility
    Sky clear Calm 48°F 44°F N/A 10SM
    Raw: KTOI 220453Z AUTO 00000KT 10SM CLR 09/07 A3010 RMK AO2 SLP189 T00890072
  • TAF
    2024-04-22 01:00:00 CDT – 2024-04-22 10:00:00 CDT
    Ceiling Wind Weather Visbility
    Sky clear 350° @ 5kt N/A 6SM
    Clouds: @ ft
    Raw: KTOI 220520Z 2206/2306 35005KT P6SM SKC FM221500 36007KT P6SM SKC FM230100 VRB03KT P6SM SKC
  • TAF
    2024-04-22 10:00:00 CDT – 2024-04-22 20:00:00 CDT
    Ceiling Wind Weather Visbility
    Sky clear 360° @ 7kt N/A 6SM
    Clouds: @ ft
    Raw: KTOI 220520Z 2206/2306 35005KT P6SM SKC FM221500 36007KT P6SM SKC FM230100 VRB03KT P6SM SKC
  • TAF
    2024-04-22 20:00:00 CDT – 2024-04-23 01:00:00 CDT
    Ceiling Wind Weather Visbility
    Sky clear Variable N/A 6SM
    Clouds: @ ft
    Raw: KTOI 220520Z 2206/2306 35005KT P6SM SKC FM221500 36007KT P6SM SKC FM230100 VRB03KT P6SM SKC
Click/tap to add an annotation marker to the map
Airport Webcams
No webcams added yet.
Direct links to live image URLs will be displayed inline on this page. URLs to separate webpages will be linked to.
URL:
Direct links to live image URLs will be displayed inline on this page. URLs to separate webpages will be linked to.
URL:
Remarks
  • Extsv hel and flt trng ops invof arpt 0630-1700 mon-fri excp hol.
  • No running lndgs on rwy or twy by skid-equipped hel.
  • Ctc cairns aaf for fcst 0600z++ mon-0700z++ sat, exc hol. wx obsn vis rstd ne-e due to hgr. remote briefing svc avbl 26 ows, barksdale afb, dsn 331-2651, c866-223-9328 (toll free) or https://ows.barksdale.af.mil.
  • No arr/dep to/from n heli ovr fbo ramp.
  • For cd when atct clsd ctc cairns apch at 334-255-8402; for cd when cairns apch clsd ctc atlanta artcc at 770-210-7692.
Comments
Leave a comment What was your experience like at this airport?